sensor_id;sensor_type;location;lat;lon;timestamp;P1;durP1;ratioP1;P2;durP2;ratioP2
71646;SDS011;59706;45.634;11.704;2023-03-31T00:01:13;16.10;;;8.30;;
71646;SDS011;59706;45.634;11.704;2023-03-31T00:03:42;16.20;;;8.40;;
71646;SDS011;59706;45.634;11.704;2023-03-31T00:06:10;15.20;;;9.00;;
71646;SDS011;59706;45.634;11.704;2023-03-31T00:08:42;14.10;;;8.80;;
71646;SDS011;59706;45.634;11.704;2023-03-31T00:11:09;16.20;;;8.90;;
71646;SDS011;59706;45.634;11.704;2023-03-31T00:13:37;15.80;;;9.10;;
71646;SDS011;59706;45.634;11.704;2023-03-31T00:16:07;16.40;;;8.60;;
71646;SDS011;59706;45.634;11.704;2023-03-31T00:18:35;16.40;;;8.10;;
71646;SDS011;59706;45.634;11.704;2023-03-31T00:23:39;15.00;;;8.60;;
71646;SDS011;59706;45.634;11.704;2023-03-31T00:26:06;18.90;;;9.20;;
71646;SDS011;59706;45.634;11.704;2023-03-31T00:28:33;18.00;;;9.70;;
71646;SDS011;59706;45.634;11.704;2023-03-31T00:31:02;16.10;;;9.40;;
71646;SDS011;59706;45.634;11.704;2023-03-31T00:33:29;17.40;;;9.40;;
71646;SDS011;59706;45.634;11.704;2023-03-31T00:35:56;15.10;;;9.00;;
71646;SDS011;59706;45.634;11.704;2023-03-31T00:38:27;15.80;;;9.60;;
71646;SDS011;59706;45.634;11.704;2023-03-31T00:40:55;15.60;;;9.50;;
71646;SDS011;59706;45.634;11.704;2023-03-31T00:43:29;15.10;;;9.20;;
71646;SDS011;59706;45.634;11.704;2023-03-31T00:46:14;15.50;;;9.90;;
71646;SDS011;59706;45.634;11.704;2023-03-31T00:52:03;17.50;;;9.50;;
71646;SDS011;59706;45.634;11.704;2023-03-31T00:54:35;17.50;;;9.60;;
71646;SDS011;59706;45.634;11.704;2023-03-31T00:57:05;17.20;;;8.60;;
71646;SDS011;59706;45.634;11.704;2023-03-31T00:59:39;18.10;;;9.80;;
71646;SDS011;59706;45.634;11.704;2023-03-31T01:02:10;18.90;;;10.70;;
71646;SDS011;59706;45.634;11.704;2023-03-31T01:04:43;16.90;;;10.50;;
71646;SDS011;59706;45.634;11.704;2023-03-31T01:07:17;15.70;;;9.90;;
71646;SDS011;59706;45.634;11.704;2023-03-31T01:09:52;17.00;;;10.30;;
71646;SDS011;59706;45.634;11.704;2023-03-31T01:12:20;17.10;;;10.00;;
71646;SDS011;59706;45.634;11.704;2023-03-31T01:14:48;16.90;;;9.80;;
71646;SDS011;59706;45.634;11.704;2023-03-31T01:17:17;15.40;;;9.40;;
71646;SDS011;59706;45.634;11.704;2023-03-31T01:37:47;19.90;;;10.90;;
71646;SDS011;59706;45.634;11.704;2023-03-31T01:43:41;15.80;;;10.00;;
71646;SDS011;59706;45.634;11.704;2023-03-31T01:47:06;16.80;;;10.10;;
71646;SDS011;59706;45.634;11.704;2023-03-31T01:54:58;18.00;;;10.70;;
71646;SDS011;59706;45.634;11.704;2023-03-31T01:57:33;19.50;;;9.70;;
71646;SDS011;59706;45.634;11.704;2023-03-31T02:00:09;19.20;;;10.80;;
71646;SDS011;59706;45.634;11.704;2023-03-31T02:02:47;20.80;;;10.90;;
71646;SDS011;59706;45.634;11.704;2023-03-31T02:05:26;19.60;;;12.30;;
71646;SDS011;59706;45.634;11.704;2023-03-31T02:08:03;16.80;;;10.90;;
71646;SDS011;59706;45.634;11.704;2023-03-31T02:10:34;18.80;;;11.80;;
71646;SDS011;59706;45.634;11.704;2023-03-31T02:13:02;23.60;;;10.90;;
71646;SDS011;59706;45.634;11.704;2023-03-31T02:15:34;20.20;;;11.70;;
71646;SDS011;59706;45.634;11.704;2023-03-31T02:18:04;17.60;;;10.40;;
71646;SDS011;59706;45.634;11.704;2023-03-31T02:20:38;19.90;;;11.20;;
71646;SDS011;59706;45.634;11.704;2023-03-31T02:23:12;17.90;;;10.40;;
71646;SDS011;59706;45.634;11.704;2023-03-31T02:25:46;17.90;;;10.70;;
71646;SDS011;59706;45.634;11.704;2023-03-31T02:28:20;18.80;;;10.20;;
71646;SDS011;59706;45.634;11.704;2023-03-31T02:33:26;18.60;;;11.70;;
71646;SDS011;59706;45.634;11.704;2023-03-31T02:35:53;17.50;;;11.00;;
71646;SDS011;59706;45.634;11.704;2023-03-31T02:38:20;19.20;;;11.90;;
71646;SDS011;59706;45.634;11.704;2023-03-31T02:40:48;18.50;;;11.10;;
71646;SDS011;59706;45.634;11.704;2023-03-31T02:43:15;19.10;;;11.20;;
71646;SDS011;59706;45.634;11.704;2023-03-31T02:45:46;18.80;;;11.20;;
71646;SDS011;59706;45.634;11.704;2023-03-31T02:48:24;19.20;;;11.60;;
71646;SDS011;59706;45.634;11.704;2023-03-31T03:07:30;19.00;;;11.60;;
71646;SDS011;59706;45.634;11.704;2023-03-31T03:15:32;21.80;;;12.70;;
71646;SDS011;59706;45.634;11.704;2023-03-31T03:18:04;20.50;;;12.00;;
71646;SDS011;59706;45.634;11.704;2023-03-31T03:20:31;22.50;;;12.50;;
71646;SDS011;59706;45.634;11.704;2023-03-31T03:22:58;20.40;;;11.80;;
71646;SDS011;59706;45.634;11.704;2023-03-31T03:25:26;21.70;;;12.20;;
71646;SDS011;59706;45.634;11.704;2023-03-31T03:27:56;18.70;;;10.30;;
71646;SDS011;59706;45.634;11.704;2023-03-31T03:30:23;22.60;;;11.00;;
71646;SDS011;59706;45.634;11.704;2023-03-31T03:32:51;20.10;;;12.10;;
71646;SDS011;59706;45.634;11.704;2023-03-31T03:35:19;20.60;;;11.60;;
71646;SDS011;59706;45.634;11.704;2023-03-31T03:37:46;20.70;;;12.30;;
71646;SDS011;59706;45.634;11.704;2023-03-31T03:40:13;21.50;;;12.90;;
71646;SDS011;59706;45.634;11.704;2023-03-31T03:42:40;24.50;;;13.60;;
71646;SDS011;59706;45.634;11.704;2023-03-31T03:45:08;21.10;;;12.70;;
71646;SDS011;59706;45.634;11.704;2023-03-31T03:47:35;20.40;;;12.90;;
71646;SDS011;59706;45.634;11.704;2023-03-31T03:50:03;21.00;;;13.30;;
71646;SDS011;59706;45.634;11.704;2023-03-31T03:52:30;19.90;;;12.70;;
71646;SDS011;59706;45.634;11.704;2023-03-31T03:54:56;20.40;;;12.60;;
71646;SDS011;59706;45.634;11.704;2023-03-31T03:57:23;21.10;;;12.00;;
71646;SDS011;59706;45.634;11.704;2023-03-31T03:59:50;22.90;;;12.70;;
71646;SDS011;59706;45.634;11.704;2023-03-31T04:02:17;25.00;;;12.10;;
71646;SDS011;59706;45.634;11.704;2023-03-31T04:04:44;23.40;;;11.40;;
71646;SDS011;59706;45.634;11.704;2023-03-31T04:07:12;23.50;;;12.50;;
71646;SDS011;59706;45.634;11.704;2023-03-31T04:09:39;21.90;;;12.40;;
71646;SDS011;59706;45.634;11.704;2023-03-31T04:12:06;24.30;;;13.40;;
71646;SDS011;59706;45.634;11.704;2023-03-31T04:14:33;23.10;;;13.40;;
71646;SDS011;59706;45.634;11.704;2023-03-31T04:17:00;21.90;;;12.60;;
71646;SDS011;59706;45.634;11.704;2023-03-31T04:19:27;22.50;;;12.50;;
71646;SDS011;59706;45.634;11.704;2023-03-31T04:21:55;22.70;;;12.70;;
71646;SDS011;59706;45.634;11.704;2023-03-31T04:24:27;21.90;;;12.40;;
71646;SDS011;59706;45.634;11.704;2023-03-31T04:26:58;23.40;;;12.30;;
71646;SDS011;59706;45.634;11.704;2023-03-31T04:29:25;22.40;;;12.50;;
71646;SDS011;59706;45.634;11.704;2023-03-31T04:31:53;23.50;;;11.50;;
71646;SDS011;59706;45.634;11.704;2023-03-31T04:34:23;21.00;;;12.00;;
71646;SDS011;59706;45.634;11.704;2023-03-31T04:36:59;20.40;;;11.70;;
71646;SDS011;59706;45.634;11.704;2023-03-31T04:39:27;20.10;;;12.40;;
71646;SDS011;59706;45.634;11.704;2023-03-31T04:41:58;21.30;;;11.70;;
71646;SDS011;59706;45.634;11.704;2023-03-31T04:44:25;20.00;;;12.30;;
71646;SDS011;59706;45.634;11.704;2023-03-31T04:46:53;23.10;;;13.10;;
71646;SDS011;59706;45.634;11.704;2023-03-31T04:49:20;21.20;;;13.40;;
71646;SDS011;59706;45.634;11.704;2023-03-31T04:51:47;22.80;;;12.80;;
71646;SDS011;59706;45.634;11.704;2023-03-31T04:54:14;21.80;;;11.60;;
71646;SDS011;59706;45.634;11.704;2023-03-31T04:56:40;21.30;;;13.10;;
71646;SDS011;59706;45.634;11.704;2023-03-31T04:59:08;21.50;;;13.40;;
71646;SDS011;59706;45.634;11.704;2023-03-31T05:01:35;24.90;;;14.00;;
71646;SDS011;59706;45.634;11.704;2023-03-31T05:04:03;23.20;;;13.30;;
71646;SDS011;59706;45.634;11.704;2023-03-31T05:06:30;33.90;;;13.20;;
71646;SDS011;59706;45.634;11.704;2023-03-31T05:08:57;24.40;;;12.80;;
71646;SDS011;59706;45.634;11.704;2023-03-31T05:11:24;21.70;;;12.50;;
71646;SDS011;59706;45.634;11.704;2023-03-31T05:13:52;21.90;;;13.30;;
71646;SDS011;59706;45.634;11.704;2023-03-31T05:16:18;21.50;;;13.10;;
71646;SDS011;59706;45.634;11.704;2023-03-31T05:18:46;26.20;;;12.80;;
71646;SDS011;59706;45.634;11.704;2023-03-31T05:21:15;29.70;;;12.50;;
71646;SDS011;59706;45.634;11.704;2023-03-31T05:23:43;27.00;;;13.10;;
71646;SDS011;59706;45.634;11.704;2023-03-31T05:26:11;25.70;;;13.70;;
71646;SDS011;59706;45.634;11.704;2023-03-31T05:28:38;24.20;;;13.30;;
71646;SDS011;59706;45.634;11.704;2023-03-31T05:31:07;24.50;;;13.50;;
71646;SDS011;59706;45.634;11.704;2023-03-31T05:33:35;24.30;;;13.20;;
71646;SDS011;59706;45.634;11.704;2023-03-31T05:36:07;24.20;;;14.20;;
71646;SDS011;59706;45.634;11.704;2023-03-31T05:38:35;24.40;;;13.50;;
71646;SDS011;59706;45.634;11.704;2023-03-31T05:43:49;24.10;;;13.50;;
71646;SDS011;59706;45.634;11.704;2023-03-31T05:46:16;26.60;;;13.10;;
71646;SDS011;59706;45.634;11.704;2023-03-31T05:48:43;23.00;;;13.90;;
71646;SDS011;59706;45.634;11.704;2023-03-31T05:51:09;32.10;;;14.90;;
71646;SDS011;59706;45.634;11.704;2023-03-31T05:53:37;27.60;;;16.70;;
71646;SDS011;59706;45.634;11.704;2023-03-31T05:56:05;28.40;;;17.90;;
71646;SDS011;59706;45.634;11.704;2023-03-31T05:58:36;26.60;;;15.80;;
71646;SDS011;59706;45.634;11.704;2023-03-31T06:01:09;27.30;;;16.20;;
71646;SDS011;59706;45.634;11.704;2023-03-31T06:03:39;25.50;;;15.80;;
71646;SDS011;59706;45.634;11.704;2023-03-31T06:06:07;27.80;;;15.60;;
71646;SDS011;59706;45.634;11.704;2023-03-31T06:08:35;27.20;;;15.70;;
71646;SDS011;59706;45.634;11.704;2023-03-31T06:11:06;27.10;;;14.40;;
71646;SDS011;59706;45.634;11.704;2023-03-31T06:13:34;27.00;;;15.90;;
71646;SDS011;59706;45.634;11.704;2023-03-31T06:16:01;29.40;;;16.20;;
71646;SDS011;59706;45.634;11.704;2023-03-31T06:18:28;25.40;;;15.60;;
71646;SDS011;59706;45.634;11.704;2023-03-31T06:20:56;30.20;;;16.60;;
71646;SDS011;59706;45.634;11.704;2023-03-31T06:23:24;26.80;;;15.30;;
71646;SDS011;59706;45.634;11.704;2023-03-31T06:25:52;34.40;;;16.60;;
71646;SDS011;59706;45.634;11.704;2023-03-31T06:28:20;29.20;;;16.90;;
71646;SDS011;59706;45.634;11.704;2023-03-31T06:30:47;26.20;;;16.10;;
71646;SDS011;59706;45.634;11.704;2023-03-31T06:33:14;27.80;;;16.40;;
71646;SDS011;59706;45.634;11.704;2023-03-31T06:35:41;26.20;;;14.90;;
71646;SDS011;59706;45.634;11.704;2023-03-31T06:38:08;28.00;;;15.90;;
71646;SDS011;59706;45.634;11.704;2023-03-31T06:40:35;26.70;;;16.30;;
71646;SDS011;59706;45.634;11.704;2023-03-31T06:43:02;32.00;;;19.80;;
71646;SDS011;59706;45.634;11.704;2023-03-31T06:45:29;35.50;;;20.90;;
71646;SDS011;59706;45.634;11.704;2023-03-31T06:47:57;28.90;;;16.90;;
71646;SDS011;59706;45.634;11.704;2023-03-31T06:50:23;30.60;;;19.30;;
71646;SDS011;59706;45.634;11.704;2023-03-31T06:52:50;29.90;;;17.30;;
71646;SDS011;59706;45.634;11.704;2023-03-31T06:55:19;27.70;;;17.80;;
71646;SDS011;59706;45.634;11.704;2023-03-31T06:57:45;29.10;;;17.60;;
71646;SDS011;59706;45.634;11.704;2023-03-31T07:00:14;30.50;;;19.10;;
71646;SDS011;59706;45.634;11.704;2023-03-31T07:02:44;31.60;;;18.90;;
71646;SDS011;59706;45.634;11.704;2023-03-31T07:05:11;32.80;;;17.20;;
71646;SDS011;59706;45.634;11.704;2023-03-31T07:07:38;32.20;;;16.90;;
71646;SDS011;59706;45.634;11.704;2023-03-31T07:10:06;32.40;;;17.90;;
71646;SDS011;59706;45.634;11.704;2023-03-31T07:12:34;29.90;;;17.40;;
71646;SDS011;59706;45.634;11.704;2023-03-31T07:15:02;32.50;;;18.90;;
71646;SDS011;59706;45.634;11.704;2023-03-31T07:17:29;29.70;;;18.10;;
71646;SDS011;59706;45.634;11.704;2023-03-31T07:19:56;29.50;;;17.40;;
71646;SDS011;59706;45.634;11.704;2023-03-31T07:22:23;29.60;;;17.80;;
71646;SDS011;59706;45.634;11.704;2023-03-31T07:24:50;28.40;;;17.20;;
71646;SDS011;59706;45.634;11.704;2023-03-31T07:27:17;28.60;;;16.70;;
71646;SDS011;59706;45.634;11.704;2023-03-31T07:29:45;29.80;;;16.30;;
71646;SDS011;59706;45.634;11.704;2023-03-31T07:32:12;28.30;;;15.60;;
71646;SDS011;59706;45.634;11.704;2023-03-31T07:34:39;32.80;;;17.50;;
71646;SDS011;59706;45.634;11.704;2023-03-31T07:37:06;31.20;;;18.60;;
71646;SDS011;59706;45.634;11.704;2023-03-31T07:39:35;30.90;;;18.20;;
71646;SDS011;59706;45.634;11.704;2023-03-31T07:42:02;29.30;;;17.30;;
71646;SDS011;59706;45.634;11.704;2023-03-31T07:44:31;32.50;;;18.50;;
71646;SDS011;59706;45.634;11.704;2023-03-31T07:46:59;31.20;;;18.10;;
71646;SDS011;59706;45.634;11.704;2023-03-31T07:49:29;30.90;;;17.50;;
71646;SDS011;59706;45.634;11.704;2023-03-31T07:51:57;30.20;;;17.20;;
71646;SDS011;59706;45.634;11.704;2023-03-31T07:54:24;30.50;;;17.50;;
71646;SDS011;59706;45.634;11.704;2023-03-31T07:56:52;29.90;;;17.70;;
71646;SDS011;59706;45.634;11.704;2023-03-31T07:59:19;27.90;;;16.50;;
71646;SDS011;59706;45.634;11.704;2023-03-31T08:01:46;30.40;;;18.20;;
71646;SDS011;59706;45.634;11.704;2023-03-31T08:04:13;32.00;;;18.40;;
71646;SDS011;59706;45.634;11.704;2023-03-31T08:06:40;30.70;;;17.90;;
71646;SDS011;59706;45.634;11.704;2023-03-31T08:09:07;29.20;;;17.50;;
71646;SDS011;59706;45.634;11.704;2023-03-31T08:11:34;31.30;;;19.00;;
71646;SDS011;59706;45.634;11.704;2023-03-31T08:14:01;34.10;;;18.00;;
71646;SDS011;59706;45.634;11.704;2023-03-31T08:16:28;31.70;;;18.30;;
71646;SDS011;59706;45.634;11.704;2023-03-31T08:18:55;28.70;;;17.30;;
71646;SDS011;59706;45.634;11.704;2023-03-31T08:21:21;31.40;;;18.60;;
71646;SDS011;59706;45.634;11.704;2023-03-31T08:23:49;31.80;;;18.60;;
71646;SDS011;59706;45.634;11.704;2023-03-31T08:26:19;27.50;;;16.70;;
71646;SDS011;59706;45.634;11.704;2023-03-31T08:28:49;28.90;;;17.50;;
71646;SDS011;59706;45.634;11.704;2023-03-31T08:31:17;34.90;;;18.50;;
71646;SDS011;59706;45.634;11.704;2023-03-31T08:33:46;32.70;;;18.80;;
71646;SDS011;59706;45.634;11.704;2023-03-31T08:36:12;34.90;;;19.20;;
71646;SDS011;59706;45.634;11.704;2023-03-31T08:38:41;30.50;;;18.50;;
71646;SDS011;59706;45.634;11.704;2023-03-31T08:44:39;36.30;;;18.50;;
71646;SDS011;59706;45.634;11.704;2023-03-31T08:47:21;28.20;;;17.80;;
71646;SDS011;59706;45.634;11.704;2023-03-31T08:49:52;55.80;;;30.50;;
71646;SDS011;59706;45.634;11.704;2023-03-31T08:52:33;29.80;;;17.20;;
71646;SDS011;59706;45.634;11.704;2023-03-31T08:55:26;31.30;;;17.70;;
71646;SDS011;59706;45.634;11.704;2023-03-31T09:15:42;25.40;;;15.70;;
71646;SDS011;59706;45.634;11.704;2023-03-31T09:24:17;27.60;;;13.50;;
71646;SDS011;59706;45.634;11.704;2023-03-31T09:26:59;30.90;;;15.40;;
71646;SDS011;59706;45.634;11.704;2023-03-31T09:30:00;29.30;;;16.20;;
71646;SDS011;59706;45.634;11.704;2023-03-31T09:32:31;34.00;;;16.60;;
71646;SDS011;59706;45.634;11.704;2023-03-31T09:35:22;33.10;;;18.60;;
71646;SDS011;59706;45.634;11.704;2023-03-31T09:37:50;29.20;;;16.60;;
71646;SDS011;59706;45.634;11.704;2023-03-31T09:40:23;31.30;;;18.10;;
71646;SDS011;59706;45.634;11.704;2023-03-31T09:42:56;30.00;;;17.20;;
71646;SDS011;59706;45.634;11.704;2023-03-31T09:45:23;29.50;;;16.70;;
71646;SDS011;59706;45.634;11.704;2023-03-31T09:47:54;30.60;;;15.30;;
71646;SDS011;59706;45.634;11.704;2023-03-31T09:50:23;29.20;;;16.20;;
71646;SDS011;59706;45.634;11.704;2023-03-31T09:53:00;33.10;;;17.20;;
71646;SDS011;59706;45.634;11.704;2023-03-31T09:55:42;32.20;;;17.80;;
71646;SDS011;59706;45.634;11.704;2023-03-31T09:58:15;28.40;;;16.80;;
71646;SDS011;59706;45.634;11.704;2023-03-31T10:01:02;32.20;;;17.20;;
71646;SDS011;59706;45.634;11.704;2023-03-31T10:03:31;29.20;;;16.00;;
71646;SDS011;59706;45.634;11.704;2023-03-31T10:06:01;29.70;;;16.30;;
71646;SDS011;59706;45.634;11.704;2023-03-31T10:11:09;39.60;;;20.00;;
71646;SDS011;59706;45.634;11.704;2023-03-31T10:13:50;31.30;;;16.40;;
71646;SDS011;59706;45.634;11.704;2023-03-31T10:16:54;27.30;;;15.20;;
71646;SDS011;59706;45.634;11.704;2023-03-31T10:19:27;32.20;;;16.50;;
71646;SDS011;59706;45.634;11.704;2023-03-31T10:22:01;91.30;;;18.30;;
71646;SDS011;59706;45.634;11.704;2023-03-31T10:24:39;28.70;;;17.10;;
71646;SDS011;59706;45.634;11.704;2023-03-31T10:27:27;28.10;;;15.80;;
71646;SDS011;59706;45.634;11.704;2023-03-31T10:30:08;28.20;;;15.80;;
71646;SDS011;59706;45.634;11.704;2023-03-31T10:33:04;24.50;;;16.10;;
71646;SDS011;59706;45.634;11.704;2023-03-31T10:35:33;24.20;;;15.50;;
71646;SDS011;59706;45.634;11.704;2023-03-31T10:38:11;27.80;;;16.50;;
71646;SDS011;59706;45.634;11.704;2023-03-31T10:41:03;26.50;;;16.00;;
71646;SDS011;59706;45.634;11.704;2023-03-31T10:43:52;28.50;;;16.40;;
71646;SDS011;59706;45.634;11.704;2023-03-31T10:46:20;27.80;;;15.30;;
71646;SDS011;59706;45.634;11.704;2023-03-31T10:48:46;25.60;;;14.60;;
71646;SDS011;59706;45.634;11.704;2023-03-31T10:51:24;29.50;;;15.40;;
71646;SDS011;59706;45.634;11.704;2023-03-31T10:53:54;28.50;;;15.60;;
71646;SDS011;59706;45.634;11.704;2023-03-31T10:57:13;30.20;;;16.80;;
71646;SDS011;59706;45.634;11.704;2023-03-31T11:14:06;29.20;;;16.10;;
71646;SDS011;59706;45.634;11.704;2023-03-31T11:19:44;29.70;;;16.60;;
71646;SDS011;59706;45.634;11.704;2023-03-31T11:22:55;28.50;;;15.50;;
71646;SDS011;59706;45.634;11.704;2023-03-31T11:26:02;25.70;;;13.90;;
71646;SDS011;59706;45.634;11.704;2023-03-31T11:29:01;28.80;;;16.40;;
71646;SDS011;59706;45.634;11.704;2023-03-31T11:31:46;29.30;;;17.60;;
71646;SDS011;59706;45.634;11.704;2023-03-31T11:40:49;29.20;;;17.50;;
71646;SDS011;59706;45.634;11.704;2023-03-31T11:46:23;28.70;;;17.40;;
71646;SDS011;59706;45.634;11.704;2023-03-31T11:49:03;31.40;;;17.10;;
71646;SDS011;59706;45.634;11.704;2023-03-31T11:51:54;31.50;;;17.50;;
71646;SDS011;59706;45.634;11.704;2023-03-31T11:54:57;28.20;;;17.00;;
71646;SDS011;59706;45.634;11.704;2023-03-31T11:57:31;28.50;;;17.30;;
71646;SDS011;59706;45.634;11.704;2023-03-31T12:00:11;31.20;;;18.10;;
71646;SDS011;59706;45.634;11.704;2023-03-31T12:05:37;29.10;;;17.30;;
71646;SDS011;59706;45.634;11.704;2023-03-31T12:11:13;28.50;;;16.80;;
71646;SDS011;59706;45.634;11.704;2023-03-31T12:17:16;28.00;;;16.90;;
71646;SDS011;59706;45.634;11.704;2023-03-31T12:19:50;27.80;;;16.50;;
71646;SDS011;59706;45.634;11.704;2023-03-31T12:22:33;29.80;;;16.40;;
71646;SDS011;59706;45.634;11.704;2023-03-31T12:25:04;32.20;;;16.90;;
71646;SDS011;59706;45.634;11.704;2023-03-31T12:27:38;26.10;;;16.80;;
71646;SDS011;59706;45.634;11.704;2023-03-31T12:30:35;25.60;;;16.10;;
71646;SDS011;59706;45.634;11.704;2023-03-31T12:50:57;26.70;;;14.20;;
71646;SDS011;59706;45.634;11.704;2023-03-31T12:56:08;28.60;;;14.90;;
71646;SDS011;59706;45.634;11.704;2023-03-31T12:58:39;23.50;;;14.40;;
71646;SDS011;59706;45.634;11.704;2023-03-31T13:01:15;23.60;;;14.50;;
71646;SDS011;59706;45.634;11.704;2023-03-31T13:04:06;28.20;;;15.50;;
71646;SDS011;59706;45.634;11.704;2023-03-31T13:06:59;26.60;;;14.70;;
71646;SDS011;59706;45.634;11.704;2023-03-31T13:09:43;26.60;;;14.20;;
71646;SDS011;59706;45.634;11.704;2023-03-31T13:12:22;27.30;;;15.20;;
71646;SDS011;59706;45.634;11.704;2023-03-31T13:14:51;25.80;;;14.90;;
71646;SDS011;59706;45.634;11.704;2023-03-31T13:17:32;26.10;;;15.40;;
71646;SDS011;59706;45.634;11.704;2023-03-31T13:28:14;25.80;;;15.30;;
71646;SDS011;59706;45.634;11.704;2023-03-31T13:50:56;28.10;;;16.20;;
71646;SDS011;59706;45.634;11.704;2023-03-31T14:05:39;30.70;;;16.10;;
71646;SDS011;59706;45.634;11.704;2023-03-31T14:11:32;26.10;;;15.10;;
71646;SDS011;59706;45.634;11.704;2023-03-31T14:14:04;29.30;;;15.70;;
71646;SDS011;59706;45.634;11.704;2023-03-31T14:31:37;26.10;;;14.90;;
71646;SDS011;59706;45.634;11.704;2023-03-31T14:37:04;24.80;;;15.20;;
71646;SDS011;59706;45.634;11.704;2023-03-31T14:39:37;30.10;;;17.10;;
71646;SDS011;59706;45.634;11.704;2023-03-31T14:42:12;25.10;;;15.50;;
71646;SDS011;59706;45.634;11.704;2023-03-31T14:44:41;29.40;;;15.80;;
71646;SDS011;59706;45.634;11.704;2023-03-31T14:47:23;26.30;;;15.20;;
71646;SDS011;59706;45.634;11.704;2023-03-31T14:50:04;26.70;;;16.60;;
71646;SDS011;59706;45.634;11.704;2023-03-31T14:52:37;28.00;;;15.50;;
71646;SDS011;59706;45.634;11.704;2023-03-31T14:55:12;27.00;;;15.70;;
71646;SDS011;59706;45.634;11.704;2023-03-31T14:57:40;32.80;;;18.70;;
71646;SDS011;59706;45.634;11.704;2023-03-31T15:00:14;30.90;;;17.40;;
71646;SDS011;59706;45.634;11.704;2023-03-31T15:02:49;32.00;;;17.70;;
71646;SDS011;59706;45.634;11.704;2023-03-31T15:05:25;31.60;;;17.30;;
71646;SDS011;59706;45.634;11.704;2023-03-31T15:08:06;31.00;;;16.60;;
71646;SDS011;59706;45.634;11.704;2023-03-31T15:10:39;29.10;;;15.90;;
71646;SDS011;59706;45.634;11.704;2023-03-31T15:13:17;29.00;;;17.30;;
71646;SDS011;59706;45.634;11.704;2023-03-31T15:15:46;27.40;;;16.10;;
71646;SDS011;59706;45.634;11.704;2023-03-31T15:18:14;28.50;;;15.30;;
71646;SDS011;59706;45.634;11.704;2023-03-31T15:20:43;24.70;;;14.80;;
71646;SDS011;59706;45.634;11.704;2023-03-31T15:23:27;28.00;;;15.60;;
71646;SDS011;59706;45.634;11.704;2023-03-31T15:26:00;25.90;;;16.30;;
71646;SDS011;59706;45.634;11.704;2023-03-31T15:28:38;27.40;;;16.20;;
71646;SDS011;59706;45.634;11.704;2023-03-31T15:31:09;27.00;;;16.60;;
71646;SDS011;59706;45.634;11.704;2023-03-31T15:33:36;28.40;;;15.70;;
71646;SDS011;59706;45.634;11.704;2023-03-31T15:36:07;29.30;;;16.40;;
71646;SDS011;59706;45.634;11.704;2023-03-31T15:38:35;31.10;;;16.80;;
71646;SDS011;59706;45.634;11.704;2023-03-31T15:41:03;29.90;;;16.60;;
71646;SDS011;59706;45.634;11.704;2023-03-31T15:49:04;34.20;;;17.10;;
71646;SDS011;59706;45.634;11.704;2023-03-31T15:51:59;31.70;;;18.70;;
71646;SDS011;59706;45.634;11.704;2023-03-31T15:54:39;31.90;;;18.20;;
71646;SDS011;59706;45.634;11.704;2023-03-31T15:57:07;29.70;;;16.60;;
71646;SDS011;59706;45.634;11.704;2023-03-31T15:59:45;28.00;;;16.60;;
71646;SDS011;59706;45.634;11.704;2023-03-31T16:02:19;31.90;;;18.60;;
71646;SDS011;59706;45.634;11.704;2023-03-31T16:04:55;32.00;;;17.70;;
71646;SDS011;59706;45.634;11.704;2023-03-31T16:07:25;30.90;;;16.90;;
71646;SDS011;59706;45.634;11.704;2023-03-31T16:10:21;28.20;;;15.90;;
71646;SDS011;59706;45.634;11.704;2023-03-31T16:12:53;35.40;;;17.70;;
71646;SDS011;59706;45.634;11.704;2023-03-31T16:15:34;34.50;;;18.50;;
71646;SDS011;59706;45.634;11.704;2023-03-31T16:18:12;34.00;;;18.20;;
71646;SDS011;59706;45.634;11.704;2023-03-31T16:21:09;33.50;;;18.40;;
71646;SDS011;59706;45.634;11.704;2023-03-31T16:23:39;31.30;;;18.10;;
71646;SDS011;59706;45.634;11.704;2023-03-31T16:26:09;32.00;;;17.90;;
71646;SDS011;59706;45.634;11.704;2023-03-31T16:28:36;32.00;;;18.10;;
71646;SDS011;59706;45.634;11.704;2023-03-31T16:31:04;32.10;;;18.10;;
71646;SDS011;59706;45.634;11.704;2023-03-31T16:33:56;32.00;;;17.10;;
71646;SDS011;59706;45.634;11.704;2023-03-31T16:36:22;29.30;;;16.00;;
71646;SDS011;59706;45.634;11.704;2023-03-31T16:38:52;34.40;;;17.70;;
71646;SDS011;59706;45.634;11.704;2023-03-31T16:41:20;31.10;;;17.50;;
71646;SDS011;59706;45.634;11.704;2023-03-31T16:43:47;34.90;;;18.60;;
71646;SDS011;59706;45.634;11.704;2023-03-31T16:46:17;34.80;;;17.80;;
71646;SDS011;59706;45.634;11.704;2023-03-31T16:48:44;33.10;;;19.00;;
71646;SDS011;59706;45.634;11.704;2023-03-31T16:51:11;32.90;;;19.20;;
71646;SDS011;59706;45.634;11.704;2023-03-31T16:53:38;32.10;;;19.90;;
71646;SDS011;59706;45.634;11.704;2023-03-31T16:56:08;37.10;;;21.40;;
71646;SDS011;59706;45.634;11.704;2023-03-31T16:58:37;34.40;;;19.70;;
71646;SDS011;59706;45.634;11.704;2023-03-31T17:01:04;31.60;;;18.20;;
71646;SDS011;59706;45.634;11.704;2023-03-31T17:03:32;36.80;;;18.50;;
71646;SDS011;59706;45.634;11.704;2023-03-31T17:06:05;30.90;;;17.70;;
71646;SDS011;59706;45.634;11.704;2023-03-31T17:08:34;32.40;;;18.30;;
71646;SDS011;59706;45.634;11.704;2023-03-31T17:11:11;34.20;;;19.60;;
71646;SDS011;59706;45.634;11.704;2023-03-31T17:13:39;32.30;;;18.80;;
71646;SDS011;59706;45.634;11.704;2023-03-31T17:16:07;32.60;;;20.70;;
71646;SDS011;59706;45.634;11.704;2023-03-31T17:18:34;30.80;;;18.30;;
71646;SDS011;59706;45.634;11.704;2023-03-31T17:21:09;35.00;;;18.60;;
71646;SDS011;59706;45.634;11.704;2023-03-31T17:23:38;31.00;;;16.50;;
71646;SDS011;59706;45.634;11.704;2023-03-31T17:26:07;32.00;;;18.80;;
71646;SDS011;59706;45.634;11.704;2023-03-31T17:28:42;33.60;;;19.90;;
71646;SDS011;59706;45.634;11.704;2023-03-31T17:31:29;41.00;;;23.10;;
71646;SDS011;59706;45.634;11.704;2023-03-31T17:33:56;64.90;;;38.20;;
71646;SDS011;59706;45.634;11.704;2023-03-31T17:36:24;34.00;;;21.20;;
71646;SDS011;59706;45.634;11.704;2023-03-31T17:38:51;33.60;;;20.50;;
71646;SDS011;59706;45.634;11.704;2023-03-31T17:41:19;34.30;;;19.50;;
71646;SDS011;59706;45.634;11.704;2023-03-31T17:43:46;31.60;;;18.50;;
71646;SDS011;59706;45.634;11.704;2023-03-31T17:46:14;39.60;;;26.20;;
71646;SDS011;59706;45.634;11.704;2023-03-31T17:48:41;34.90;;;22.50;;
71646;SDS011;59706;45.634;11.704;2023-03-31T17:51:13;37.10;;;19.80;;
71646;SDS011;59706;45.634;11.704;2023-03-31T17:53:42;29.50;;;19.60;;
71646;SDS011;59706;45.634;11.704;2023-03-31T17:56:09;30.30;;;19.00;;
71646;SDS011;59706;45.634;11.704;2023-03-31T17:58:36;29.60;;;18.20;;
71646;SDS011;59706;45.634;11.704;2023-03-31T18:01:09;32.00;;;18.50;;
71646;SDS011;59706;45.634;11.704;2023-03-31T18:03:37;32.70;;;18.80;;
71646;SDS011;59706;45.634;11.704;2023-03-31T18:06:08;34.90;;;18.60;;
71646;SDS011;59706;45.634;11.704;2023-03-31T18:08:36;38.20;;;22.50;;
71646;SDS011;59706;45.634;11.704;2023-03-31T18:11:04;43.00;;;23.00;;
71646;SDS011;59706;45.634;11.704;2023-03-31T18:13:33;41.20;;;23.10;;